Terminal Aerodrome Forecast
Issued by NWS

Home | Current Version | Previous Version | Graphics & Text | Print | Product List | Glossary On
Versions: 1 2 3 4 5 6 7 8 9 10 11 12 13 14 15 16 17 18 19 20 21 22 23
852
FTUS43 KGRB 060520
TAFAUW
TAF
KAUW 060520Z 0606/0706 14008KT 5SM BR OVC006 WS015/19035KT
      TEMPO 0606/0608 SCT006 BKN100
     FM061100 17009KT 4SM BR OVC004
      TEMPO 0611/0614 2SM -FZDZ BR
     FM061600 21010G17KT 6SM -SHSN OVC008
      TEMPO 0616/0620 3SM -SHSN SCT008 BKN015
     FM062000 25013G22KT P6SM -SHSN BKN015
     FM062200 25014G24KT P6SM -SHSN BKN025=

USA.gov is the U.S. government's official web portal to all federal, state and local government web resources and services.